createdAt,value
2018-06-16T00:03:59.700Z,4.47
2018-06-16T00:08:52.965Z,4.90
2018-06-16T00:13:46.357Z,4.72
2018-06-16T00:18:39.674Z,4.87
2018-06-16T00:23:32.920Z,5.03
2018-06-16T00:28:26.159Z,4.77
2018-06-16T00:33:19.406Z,5.10
2018-06-16T00:38:12.675Z,4.03
2018-06-16T00:43:05.960Z,4.70
2018-06-16T00:47:59.222Z,5.57
2018-06-16T00:52:52.658Z,4.87
2018-06-16T00:57:47.982Z,5.60
2018-06-16T01:02:41.357Z,4.73
2018-06-16T01:07:34.770Z,4.42
2018-06-16T01:12:28.170Z,6.13
2018-06-16T01:17:21.451Z,5.50
2018-06-16T01:22:14.759Z,7.17
2018-06-16T01:27:08.017Z,5.20
2018-06-16T01:32:02.095Z,5.72
2018-06-16T01:36:55.363Z,5.13
2018-06-16T01:41:48.610Z,5.53
2018-06-16T01:46:41.864Z,4.80
2018-06-16T01:51:35.144Z,4.87
2018-06-16T01:56:28.394Z,4.80
2018-06-16T02:01:21.638Z,4.17
2018-06-16T02:06:14.935Z,4.67
2018-06-16T02:11:08.208Z,4.80
2018-06-16T02:16:01.499Z,4.50
2018-06-16T02:20:54.911Z,4.62
2018-06-16T02:25:48.226Z,4.60
2018-06-16T02:30:41.470Z,4.63
2018-06-16T02:35:34.725Z,4.53
2018-06-16T02:40:28.020Z,5.13
2018-06-16T02:45:21.250Z,4.85
2018-06-16T02:50:14.545Z,6.13
2018-06-16T02:55:07.813Z,5.97
2018-06-16T03:00:01.040Z,5.53
2018-06-16T03:04:54.924Z,6.65
2018-06-16T03:09:48.172Z,6.03
2018-06-16T03:14:41.383Z,5.50
2018-06-16T03:19:34.632Z,7.03
2018-06-16T03:24:27.845Z,5.83
2018-06-16T03:29:21.128Z,6.75
2018-06-16T03:34:14.357Z,5.90
2018-06-16T03:39:08.395Z,5.62
2018-06-16T03:44:01.653Z,5.93
2018-06-16T03:48:54.904Z,6.05
2018-06-16T03:53:48.169Z,6.40
2018-06-16T03:58:41.659Z,5.70
2018-06-16T04:03:34.921Z,5.53
2018-06-16T04:08:28.144Z,5.45
2018-06-16T04:13:21.391Z,4.97
2018-06-16T04:18:14.650Z,5.40
2018-06-16T04:23:07.895Z,4.43
2018-06-16T04:28:01.130Z,5.35
2018-06-16T04:32:54.385Z,5.03
2018-06-16T04:37:47.634Z,4.97
2018-06-16T04:42:40.904Z,5.07
2018-06-16T04:47:34.286Z,5.40
2018-06-16T04:52:27.522Z,5.33
2018-06-16T04:57:20.813Z,5.50
2018-06-16T05:02:14.163Z,5.33
2018-06-16T05:07:07.501Z,5.03
2018-06-16T05:12:00.732Z,5.35
2018-06-16T05:16:54.038Z,6.00
2018-06-16T05:21:47.329Z,6.20
2018-06-16T05:26:40.596Z,5.50
2018-06-16T05:31:33.853Z,4.90
2018-06-16T05:36:27.099Z,5.37
2018-06-16T05:41:20.330Z,5.10
2018-06-16T05:46:13.853Z,4.50
2018-06-16T05:51:07.125Z,4.57
2018-06-16T05:56:00.379Z,5.05
2018-06-16T06:00:53.630Z,4.50
2018-06-16T06:05:46.890Z,4.33
2018-06-16T06:10:40.111Z,3.70
2018-06-16T06:15:33.364Z,3.35
2018-06-16T06:20:26.627Z,3.30
2018-06-16T06:25:19.881Z,3.52
2018-06-16T06:30:16.391Z,3.17
2018-06-16T06:35:09.676Z,3.03
2018-06-16T06:40:03.057Z,3.08
2018-06-16T06:44:56.438Z,3.30
2018-06-16T06:49:49.712Z,3.40
2018-06-16T06:54:42.984Z,3.33
2018-06-16T06:59:36.281Z,3.63
2018-06-16T07:04:29.635Z,3.65
2018-06-16T07:09:22.925Z,3.17
2018-06-16T07:14:16.197Z,2.90
2018-06-16T07:19:09.446Z,2.90
2018-06-16T07:24:02.703Z,2.67
2018-06-16T07:28:56.056Z,2.85
2018-06-16T07:33:49.375Z,3.07
2018-06-16T07:38:42.644Z,3.27
2018-06-16T07:43:36.290Z,2.90
2018-06-16T07:48:29.519Z,2.60
2018-06-16T07:53:22.746Z,2.65
2018-06-16T07:58:16.025Z,3.20
2018-06-16T08:03:09.279Z,3.47
2018-06-16T08:08:02.579Z,3.77
2018-06-16T08:12:55.904Z,3.92
2018-06-16T08:17:49.270Z,3.27
2018-06-16T08:22:43.130Z,4.17
2018-06-16T08:27:36.426Z,3.67
2018-06-16T08:32:29.729Z,3.27
2018-06-16T08:37:23.037Z,3.70
2018-06-16T08:42:16.345Z,3.10
2018-06-16T08:47:10.454Z,2.93
2018-06-16T08:52:03.682Z,3.37
2018-06-16T08:56:56.914Z,3.13
2018-06-16T09:01:50.173Z,2.87
2018-06-16T09:06:43.648Z,2.60
2018-06-16T09:11:37.020Z,2.40
2018-06-16T09:16:30.249Z,2.43
2018-06-16T09:21:23.507Z,2.53
2018-06-16T09:26:16.852Z,2.20
2018-06-16T09:31:10.109Z,2.63
2018-06-16T09:36:03.383Z,2.30
2018-06-16T09:40:56.715Z,2.30
2018-06-16T09:45:49.956Z,2.67
2018-06-16T09:50:46.237Z,2.30
2018-06-16T09:55:39.505Z,1.90
2018-06-16T10:00:38.420Z,1.47
2018-06-16T10:05:31.684Z,1.60
2018-06-16T10:10:25.025Z,3.52
2018-06-16T10:15:18.286Z,2.37
2018-06-16T10:20:11.533Z,1.95
2018-06-16T10:25:04.788Z,2.10
2018-06-16T10:29:58.024Z,2.87
2018-06-16T10:34:52.160Z,1.87
2018-06-16T10:39:45.433Z,1.87
2018-06-16T10:44:38.712Z,2.37
2018-06-16T10:49:31.983Z,2.20
2018-06-16T10:54:25.241Z,2.13
2018-06-16T10:59:18.533Z,2.40
2018-06-16T11:04:11.792Z,2.17
2018-06-16T11:09:07.822Z,2.60
2018-06-16T11:14:01.046Z,2.60
2018-06-16T11:18:54.468Z,2.27
2018-06-16T11:23:47.754Z,2.23
2018-06-16T11:28:41.022Z,2.30
2018-06-16T11:33:34.287Z,1.93
2018-06-16T11:38:27.530Z,2.30
2018-06-16T11:43:20.952Z,2.17
2018-06-16T11:48:14.195Z,2.30
2018-06-16T11:53:07.501Z,2.30
2018-06-16T11:58:02.148Z,2.20
2018-06-16T12:02:55.542Z,2.80
2018-06-16T12:07:49.083Z,2.10
2018-06-16T12:12:42.340Z,2.07
2018-06-16T12:17:35.622Z,2.40
2018-06-16T12:22:28.886Z,2.20
2018-06-16T12:27:22.133Z,2.30
2018-06-16T12:32:15.364Z,2.00
2018-06-16T12:37:08.609Z,2.30
2018-06-16T12:42:01.862Z,2.10
2018-06-16T12:46:55.302Z,2.40
2018-06-16T12:51:49.336Z,2.23
2018-06-16T12:56:43.321Z,2.97
2018-06-16T13:01:36.549Z,2.70
2018-06-16T13:06:30.239Z,2.02
2018-06-16T13:11:23.555Z,2.10
2018-06-16T13:16:17.365Z,2.10
2018-06-16T13:21:10.787Z,1.97
2018-06-16T13:26:04.144Z,2.30
2018-06-16T13:30:57.391Z,2.90
2018-06-16T13:35:50.696Z,4.30
2018-06-16T13:40:44.611Z,3.05
2018-06-16T13:45:38.156Z,2.77
2018-06-16T13:50:31.475Z,3.17
2018-06-16T13:55:24.716Z,2.70
2018-06-16T14:00:18.111Z,2.50
2018-06-16T14:05:11.373Z,2.77
2018-06-16T14:10:04.677Z,2.53
2018-06-16T14:14:57.965Z,3.08
2018-06-16T14:19:51.227Z,3.10
2018-06-16T14:24:44.515Z,2.55
2018-06-16T14:29:37.784Z,2.30
2018-06-16T14:34:31.048Z,2.58
2018-06-16T14:39:24.333Z,2.30
2018-06-16T14:44:17.639Z,2.50
2018-06-16T14:49:10.927Z,2.23
2018-06-16T14:54:04.269Z,2.10
2018-06-16T14:58:57.523Z,2.30
2018-06-16T15:03:50.842Z,2.40
2018-06-16T15:08:44.093Z,2.30
2018-06-16T15:13:37.407Z,2.23
2018-06-16T15:18:30.680Z,2.12
2018-06-16T15:23:23.994Z,2.23
2018-06-16T15:28:17.310Z,2.30
2018-06-16T15:33:10.578Z,2.10
2018-06-16T15:38:03.857Z,2.13
2018-06-16T15:42:57.125Z,2.70
2018-06-16T15:47:50.752Z,2.50
2018-06-16T15:52:44.017Z,2.10
2018-06-16T15:57:37.273Z,2.42
2018-06-16T16:02:30.605Z,3.97
2018-06-16T16:07:23.846Z,4.00
2018-06-16T16:12:17.085Z,3.77
2018-06-16T16:17:10.370Z,5.03
2018-06-16T16:22:03.634Z,4.80
2018-06-16T16:26:56.881Z,5.17
2018-06-16T16:31:50.151Z,4.83
2018-06-16T16:36:43.464Z,5.10
2018-06-16T16:41:36.869Z,5.10
2018-06-16T16:46:30.141Z,5.20
2018-06-16T16:51:23.384Z,4.77
2018-06-16T16:56:16.739Z,4.17
2018-06-16T17:01:10.266Z,4.57
2018-06-16T17:06:03.710Z,4.27
2018-06-16T17:10:56.970Z,4.87
2018-06-16T17:15:50.212Z,4.57
2018-06-16T17:20:43.513Z,5.00
2018-06-16T17:25:36.776Z,4.90
2018-06-16T17:30:30.060Z,5.37
2018-06-16T17:35:23.332Z,4.85
2018-06-16T17:40:17.515Z,5.03
2018-06-16T17:45:10.775Z,4.75
2018-06-16T17:50:04.115Z,5.00
2018-06-16T17:54:57.430Z,5.75
2018-06-16T17:59:50.679Z,7.80
2018-06-16T18:04:43.974Z,7.35
2018-06-16T18:09:37.243Z,6.97
2018-06-16T18:14:30.506Z,7.47
2018-06-16T18:19:23.882Z,6.87
2018-06-16T18:24:17.113Z,7.67
2018-06-16T18:29:10.378Z,6.90
2018-06-16T18:34:03.744Z,6.27
2018-06-16T18:38:56.991Z,6.10
2018-06-16T18:43:50.241Z,7.43
2018-06-16T18:48:43.500Z,6.80
2018-06-16T18:53:36.782Z,7.47
2018-06-16T18:58:30.069Z,6.33
2018-06-16T19:03:23.335Z,8.00
2018-06-16T19:08:16.784Z,7.60
2018-06-16T19:13:10.123Z,7.37
2018-06-16T19:18:03.521Z,7.30
2018-06-16T19:22:56.808Z,7.37
2018-06-16T19:27:50.087Z,7.53
2018-06-16T19:32:43.323Z,7.17
2018-06-16T19:37:36.571Z,8.00
2018-06-16T19:42:30.053Z,7.55
2018-06-16T19:47:23.362Z,7.30
2018-06-16T19:52:16.668Z,7.78
2018-06-16T19:57:10.078Z,6.83
2018-06-16T20:02:03.392Z,7.37
2018-06-16T20:06:56.610Z,5.53
2018-06-16T20:11:49.945Z,5.63
2018-06-16T20:16:43.180Z,6.22
2018-06-16T20:21:36.436Z,5.50
2018-06-16T20:26:29.936Z,5.12
2018-06-16T20:31:23.265Z,5.20
2018-06-16T20:36:16.504Z,5.17
2018-06-16T20:41:10.543Z,5.10
2018-06-16T20:46:04.119Z,4.60
2018-06-16T20:50:57.364Z,5.37
2018-06-16T20:55:50.619Z,5.93
2018-06-16T21:00:43.918Z,5.57
2018-06-16T21:05:37.182Z,5.80
2018-06-16T21:10:30.439Z,6.00
2018-06-16T21:15:23.729Z,6.37
2018-06-16T21:20:17.016Z,5.78
2018-06-16T21:25:10.291Z,5.87
2018-06-16T21:30:06.904Z,5.95
2018-06-16T21:35:00.240Z,5.60
2018-06-16T21:39:53.580Z,5.87
2018-06-16T21:44:46.836Z,5.20
2018-06-16T21:49:40.057Z,5.17
2018-06-16T21:54:33.302Z,5.00
2018-06-16T21:59:26.578Z,5.25
2018-06-16T22:04:19.833Z,5.10
2018-06-16T22:09:13.115Z,5.58
2018-06-16T22:14:06.422Z,5.00
2018-06-16T22:18:59.680Z,4.83
2018-06-16T22:23:52.929Z,5.07
2018-06-16T22:28:46.206Z,5.03
2018-06-16T22:33:39.446Z,5.37
2018-06-16T22:38:32.706Z,5.33
2018-06-16T22:43:25.957Z,5.87
2018-06-16T22:48:19.231Z,5.80
2018-06-16T22:53:12.462Z,5.87
2018-06-16T22:58:05.756Z,5.42
2018-06-16T23:02:59.016Z,5.43
2018-06-16T23:07:52.830Z,5.55
2018-06-16T23:12:46.081Z,5.50
2018-06-16T23:17:39.345Z,5.67
2018-06-16T23:22:32.567Z,7.87
2018-06-16T23:27:25.810Z,6.22
2018-06-16T23:32:19.079Z,5.87
2018-06-16T23:37:12.328Z,5.58
2018-06-16T23:42:05.595Z,5.57
2018-06-16T23:46:58.846Z,5.03
2018-06-16T23:51:52.132Z,5.10
2018-06-16T23:56:45.374Z,4.78
